Time;durP1;ratioP1;P1;durP2;ratioP2;P2;SDS_P1;SDS_P2;PMS_P1;PMS_P2;Temp;Humidity;BMP_temperature;BMP_pressure;BME280_temperature;BME280_humidity;BME280_pressure;Samples;Min_cycle;Max_cycle;Signal;HPM_P1;HPM_P2
2021/04/13 00:02:12;;;;;;;4.18;1.70;;;1.40;99.90;;;;;;5069819;28;20032;-57
2021/04/13 00:04:37;;;;;;;3.42;1.52;;;1.30;99.90;;;;;;5069632;28;20074;-55
2021/04/13 00:07:03;;;;;;;3.05;1.70;;;1.30;99.90;;;;;;5053586;28;20253;-56
2021/04/13 00:09:32;;;;;;;3.10;1.38;;;1.30;99.90;;;;;;5065919;28;20021;-58
2021/04/13 00:12:36;;;;;;;3.67;1.92;;;1.20;99.90;;;;;;5069486;28;20574;-58
2021/04/13 00:15:27;;;;;;;2.63;1.52;;;1.20;99.90;;;;;;4997143;28;20064;-53
2021/04/13 00:17:54;;;;;;;4.25;1.50;;;1.20;99.90;;;;;;4958180;28;20077;-57
2021/04/13 00:20:41;;;;;;;3.25;1.48;;;1.20;99.90;;;;;;5048294;28;20068;-57
2021/04/13 00:23:08;;;;;;;2.83;1.45;;;1.30;99.90;;;;;;5075577;28;20035;-53
2021/04/13 00:25:43;;;;;;;6.80;1.73;;;1.20;99.90;;;;;;5073784;28;20028;-57
2021/04/13 00:28:10;;;;;;;1.30;1.23;;;1.20;99.90;;;;;;5071189;28;20033;-57
2021/04/13 00:31:01;;;;;;;1.88;1.60;;;1.30;99.90;;;;;;5072490;28;20457;-57
2021/04/13 00:33:30;;;;;;;3.78;1.60;;;1.20;99.90;;;;;;5064153;28;20498;-54
2021/04/13 00:36:09;;;;;;;5.53;1.85;;;1.20;99.90;;;;;;5069816;28;20021;-57
2021/04/13 00:38:46;;;;;;;2.50;1.63;;;1.30;99.90;;;;;;5066664;28;20043;-56
2021/04/13 00:41:27;;;;;;;5.78;1.98;;;1.20;99.90;;;;;;5066489;28;20066;-57
2021/04/13 00:44:09;;;;;;;3.33;1.98;;;1.20;99.90;;;;;;5058248;28;20055;-53
2021/04/13 00:46:43;;;;;;;2.50;1.65;;;1.20;99.90;;;;;;5057497;28;20044;-58
2021/04/13 00:49:10;;;;;;;5.55;1.70;;;1.20;99.90;;;;;;5070949;28;20032;-56
2021/04/13 00:51:45;;;;;;;2.22;1.70;;;1.20;99.90;;;;;;5072058;28;20116;-57
2021/04/13 00:54:35;;;;;;;3.55;1.55;;;1.20;99.90;;;;;;5070488;28;20553;-57
2021/04/13 00:57:14;;;;;;;3.00;1.80;;;1.20;99.90;;;;;;5066546;28;20035;-58
2021/04/13 00:59:41;;;;;;;6.03;1.75;;;1.20;99.90;;;;;;5076988;22;20033;-77
2021/04/13 01:02:13;;;;;;;7.65;1.83;;;1.20;99.90;;;;;;5091465;28;20066;-78
2021/04/13 01:05:16;;;;;;;4.78;1.90;;;1.20;99.90;;;;;;5093106;28;20020;-79
2021/04/13 01:07:52;;;;;;;3.20;1.48;;;1.10;99.90;;;;;;5052258;28;20024;-77
2021/04/13 01:10:36;;;;;;;5.35;1.70;;;1.20;99.90;;;;;;5063145;28;20023;-76
2021/04/13 01:13:15;;;;;;;4.05;1.67;;;1.20;99.90;;;;;;5062824;28;20028;-77
2021/04/13 01:15:44;;;;;;;4.10;2.03;;;1.10;99.90;;;;;;5057301;28;20107;-78
2021/04/13 01:18:23;;;;;;;4.68;1.80;;;1.10;99.90;;;;;;5069268;28;20025;-77
2021/04/13 01:20:59;;;;;;;3.40;1.67;;;1.10;99.90;;;;;;5073027;28;20070;-77
2021/04/13 01:23:32;;;;;;;3.90;1.73;;;1.10;99.90;;;;;;5051085;28;20634;-77
2021/04/13 01:26:01;;;;;;;1.95;1.63;;;1.10;99.90;;;;;;5062069;28;20035;-78
2021/04/13 01:28:32;;;;;;;2.35;1.73;;;1.10;99.90;;;;;;5073148;28;20025;-77
2021/04/13 01:31:10;;;;;;;2.53;1.80;;;1.10;99.90;;;;;;5083735;28;20020;-77
2021/04/13 01:36:40;;;;;;;2.40;2.20;;;1.00;99.90;;;;;;5072577;28;20027;-77
2021/04/13 01:39:14;;;;;;;1.90;1.70;;;1.00;99.90;;;;;;5056334;28;20040;-77
2021/04/13 01:41:59;;;;;;;3.53;1.40;;;1.00;99.90;;;;;;5079592;28;20020;-77
2021/04/13 01:44:27;;;;;;;3.17;1.83;;;0.90;99.90;;;;;;5074552;28;20133;-77
2021/04/13 01:46:54;;;;;;;4.80;1.60;;;0.90;99.90;;;;;;5054522;28;20035;-77
2021/04/13 01:49:20;;;;;;;3.78;1.90;;;0.90;99.90;;;;;;5036561;28;20021;-78
2021/04/13 01:51:45;;;;;;;3.17;2.00;;;0.90;99.90;;;;;;5055156;28;20036;-77
2021/04/13 01:54:16;;;;;;;6.07;1.98;;;0.90;99.90;;;;;;5072255;28;20093;-77
2021/04/13 01:57:01;;;;;;;2.83;1.85;;;0.80;99.90;;;;;;5064776;28;20046;-76
2021/04/13 01:59:37;;;;;;;2.25;1.65;;;0.80;99.90;;;;;;5043005;28;20057;-78
2021/04/13 02:02:12;;;;;;;2.88;1.95;;;0.70;99.90;;;;;;5061359;28;20080;-78
2021/04/13 02:04:46;;;;;;;6.72;2.45;;;0.70;99.90;;;;;;5064572;28;20067;-76
2021/04/13 02:10:35;;;;;;;7.55;3.00;;;0.70;99.90;;;;;;5052188;28;20626;-76
2021/04/13 02:13:15;;;;;;;5.18;1.70;;;0.60;99.90;;;;;;5049555;28;20385;-77
2021/04/13 02:16:19;;;;;;;3.55;2.55;;;0.60;99.90;;;;;;5061949;28;20352;-77
2021/04/13 02:18:48;;;;;;;6.53;2.85;;;0.50;99.90;;;;;;5031980;28;20242;-78
2021/04/13 02:21:18;;;;;;;3.40;2.47;;;0.50;99.90;;;;;;5051322;28;20683;-77
2021/04/13 02:23:56;;;;;;;5.47;3.03;;;0.50;99.90;;;;;;5063892;28;20087;-78
2021/04/13 02:26:22;;;;;;;4.82;2.63;;;0.50;99.90;;;;;;5058368;28;20028;-78
2021/04/13 02:28:50;;;;;;;4.18;2.80;;;0.50;99.90;;;;;;5058373;28;20075;-78
2021/04/13 02:31:36;;;;;;;4.20;2.83;;;0.50;99.90;;;;;;5059265;28;20060;-77
2021/04/13 02:34:17;;;;;;;9.73;2.88;;;0.50;99.90;;;;;;5070304;28;20368;-77
2021/04/13 02:36:53;;;;;;;2.95;2.20;;;0.60;99.90;;;;;;5055005;28;20024;-77
2021/04/13 02:39:23;;;;;;;9.07;3.17;;;0.50;99.90;;;;;;5073905;28;20020;-77
2021/04/13 02:41:53;;;;;;;6.22;3.00;;;0.60;99.90;;;;;;5050057;28;20024;-77
2021/04/13 02:44:22;;;;;;;5.82;3.40;;;0.50;99.90;;;;;;5069387;28;20025;-77
2021/04/13 02:46:51;;;;;;;3.63;2.83;;;0.50;99.90;;;;;;5085755;28;20013;-78
2021/04/13 02:49:19;;;;;;;2.60;2.38;;;0.50;99.90;;;;;;5056794;28;20035;-78
2021/04/13 02:51:51;;;;;;;5.63;2.83;;;0.50;99.90;;;;;;5056076;28;20690;-78
2021/04/13 02:54:22;;;;;;;4.40;2.30;;;0.50;99.90;;;;;;5075708;28;20096;-78
2021/04/13 02:56:51;;;;;;;5.72;3.30;;;0.50;99.90;;;;;;5057879;28;20028;-78
2021/04/13 02:59:17;;;;;;;3.85;2.28;;;0.50;99.90;;;;;;5056333;28;20708;-77
2021/04/13 03:02:02;;;;;;;3.40;2.47;;;0.50;99.90;;;;;;5075668;28;20029;-77
2021/04/13 03:04:29;;;;;;;5.47;2.38;;;0.50;99.90;;;;;;5082949;28;20537;-78
2021/04/13 03:06:57;;;;;;;10.07;2.97;;;0.50;99.90;;;;;;5075089;28;20081;-78
2021/04/13 03:09:27;;;;;;;2.65;2.33;;;0.40;99.90;;;;;;5056189;28;20024;-78
2021/04/13 03:12:03;;;;;;;5.25;2.80;;;0.40;99.90;;;;;;5058965;28;20017;-78
2021/04/13 03:14:35;;;;;;;5.25;2.85;;;0.40;99.90;;;;;;5070087;28;20042;-77
2021/04/13 03:17:01;;;;;;;6.22;2.90;;;0.40;99.90;;;;;;5055633;28;20016;-78
2021/04/13 03:19:29;;;;;;;5.68;2.83;;;0.50;99.90;;;;;;5081487;28;20067;-77
2021/04/13 03:22:00;;;;;;;5.78;2.60;;;0.50;99.90;;;;;;5074587;28;20034;-77
2021/04/13 03:24:30;;;;;;;4.30;3.28;;;0.50;99.90;;;;;;5052909;28;20017;-78
2021/04/13 03:27:00;;;;;;;9.18;3.20;;;0.50;99.90;;;;;;5052423;28;20077;-77
2021/04/13 03:29:50;;;;;;;4.20;2.67;;;0.50;99.90;;;;;;5042521;28;20202;-78
2021/04/13 03:32:19;;;;;;;4.65;2.53;;;0.50;99.90;;;;;;5063126;28;20029;-79
2021/04/13 03:34:45;;;;;;;8.45;3.33;;;0.50;99.90;;;;;;5059103;28;20025;-78
2021/04/13 03:37:13;;;;;;;3.97;3.08;;;0.50;99.90;;;;;;5063215;28;20047;-78
2021/04/13 03:39:42;;;;;;;8.85;4.00;;;0.40;99.90;;;;;;5054453;28;20021;-78
2021/04/13 03:42:18;;;;;;;3.42;2.92;;;0.50;99.90;;;;;;5051740;28;20029;-77
2021/04/13 03:44:44;;;;;;;6.13;3.00;;;0.50;99.90;;;;;;5056960;28;20047;-78
2021/04/13 03:47:18;;;;;;;6.65;3.13;;;0.40;99.90;;;;;;5068593;28;21633;-77
2021/04/13 03:49:45;;;;;;;3.95;3.28;;;0.50;99.90;;;;;;5057793;28;20044;-77
2021/04/13 03:52:24;;;;;;;5.88;3.13;;;0.40;99.90;;;;;;5058644;28;20024;-77
2021/04/13 03:54:50;;;;;;;5.80;3.40;;;0.50;99.90;;;;;;5067006;28;20082;-78
2021/04/13 03:57:36;;;;;;;5.00;3.17;;;0.40;99.90;;;;;;5057551;28;20028;-78
2021/04/13 04:00:06;;;;;;;6.13;3.40;;;0.40;99.90;;;;;;5072799;28;20048;-77
2021/04/13 04:02:32;;;;;;;4.97;3.20;;;0.40;99.90;;;;;;5061610;28;20029;-77
2021/04/13 04:05:13;;;;;;;4.82;2.75;;;0.30;99.90;;;;;;5052990;28;20023;-77
2021/04/13 04:07:50;;;;;;;7.38;3.25;;;0.30;99.90;;;;;;5069090;28;20090;-78
2021/04/13 04:10:46;;;;;;;5.18;2.70;;;0.40;99.90;;;;;;5066496;28;20241;-76
2021/04/13 04:13:32;;;;;;;5.78;3.80;;;0.30;99.90;;;;;;5069166;28;20024;-76
2021/04/13 04:16:08;;;;;;;5.07;3.42;;;0.30;99.90;;;;;;5054840;28;20052;-76
2021/04/13 04:18:38;;;;;;;12.95;4.03;;;0.30;99.90;;;;;;5058430;28;20105;-75
2021/04/13 04:21:22;;;;;;;7.20;3.97;;;0.30;99.90;;;;;;5063587;28;20076;-76
2021/04/13 04:23:58;;;;;;;6.40;3.92;;;0.30;99.90;;;;;;5070801;28;20021;-78
2021/04/13 04:26:28;;;;;;;6.05;3.88;;;0.30;99.90;;;;;;5069702;28;20035;-77
2021/04/13 04:29:09;;;;;;;7.47;3.50;;;0.30;99.90;;;;;;5078423;28;20009;-76
2021/04/13 04:31:40;;;;;;;4.60;3.50;;;0.30;99.90;;;;;;5064179;28;20016;-76
2021/04/13 04:34:15;;;;;;;5.95;3.78;;;0.30;99.90;;;;;;5063832;28;20032;-76
2021/04/13 04:36:41;;;;;;;6.60;3.95;;;0.30;99.90;;;;;;5063657;28;20115;-77
2021/04/13 04:39:29;;;;;;;6.97;3.38;;;0.30;99.90;;;;;;5067182;28;20371;-77
2021/04/13 04:41:59;;;;;;;7.10;3.97;;;0.30;99.90;;;;;;5065551;28;20038;-76
2021/04/13 04:44:27;;;;;;;6.22;3.20;;;0.40;99.90;;;;;;5072001;28;20043;-76
2021/04/13 04:46:59;;;;;;;5.82;3.50;;;0.40;99.90;;;;;;5067488;28;20029;-76
2021/04/13 04:49:26;;;;;;;8.95;3.85;;;0.50;99.90;;;;;;5064074;28;20055;-76
2021/04/13 04:51:54;;;;;;;7.20;3.67;;;0.60;99.90;;;;;;5075211;28;20028;-77
2021/04/13 04:54:23;;;;;;;7.82;3.33;;;0.60;99.90;;;;;;5056164;28;20049;-76
2021/04/13 04:56:49;;;;;;;7.60;3.88;;;0.70;99.90;;;;;;5067020;28;20043;-78
2021/04/13 04:59:15;;;;;;;7.70;3.45;;;0.80;99.90;;;;;;5073307;28;20032;-75
2021/04/13 05:01:41;;;;;;;5.70;3.88;;;0.90;99.90;;;;;;5053754;28;20039;-77
2021/04/13 05:04:06;;;;;;;5.93;3.30;;;0.90;99.90;;;;;;5069924;28;20024;-77
2021/04/13 05:06:32;;;;;;;5.57;3.08;;;0.90;99.90;;;;;;5074270;28;20032;-77
2021/04/13 05:08:58;;;;;;;4.90;3.42;;;0.90;99.90;;;;;;5055909;28;20105;-76
2021/04/13 05:11:25;;;;;;;6.75;3.47;;;0.90;99.90;;;;;;5067713;28;20032;-76
2021/04/13 05:13:51;;;;;;;6.63;3.13;;;0.90;99.90;;;;;;5073749;28;20035;-77
2021/04/13 05:16:17;;;;;;;4.93;3.67;;;0.90;99.90;;;;;;5073365;28;20028;-78
2021/04/13 05:18:43;;;;;;;5.60;3.10;;;0.80;99.90;;;;;;5072988;28;20029;-76
2021/04/13 05:21:09;;;;;;;6.65;3.28;;;0.90;99.90;;;;;;5073247;28;20025;-78
2021/04/13 05:23:35;;;;;;;4.38;3.50;;;0.90;99.90;;;;;;5075050;28;20031;-77
2021/04/13 05:26:01;;;;;;;6.32;3.42;;;0.90;99.90;;;;;;5073867;28;20017;-77
2021/04/13 05:28:27;;;;;;;5.20;3.40;;;1.00;99.90;;;;;;5073896;28;20025;-77
2021/04/13 05:30:52;;;;;;;5.43;3.65;;;0.90;99.90;;;;;;5073686;28;20035;-77
2021/04/13 05:33:20;;;;;;;5.15;3.50;;;0.90;99.90;;;;;;5072634;28;20016;-76
2021/04/13 05:35:45;;;;;;;5.45;3.60;;;1.00;99.90;;;;;;5074002;28;20021;-77
2021/04/13 05:38:15;;;;;;;5.32;3.67;;;0.90;99.90;;;;;;5077542;28;20367;-76
2021/04/13 05:40:41;;;;;;;12.13;4.28;;;1.00;99.90;;;;;;5072657;28;20119;-77
2021/04/13 05:43:09;;;;;;;6.20;3.72;;;1.00;99.90;;;;;;5055591;28;20364;-77
2021/04/13 05:45:37;;;;;;;8.70;4.28;;;1.00;99.90;;;;;;5050484;28;20066;-77
2021/04/13 05:48:04;;;;;;;5.32;3.75;;;1.00;99.90;;;;;;5054931;28;20021;-77
2021/04/13 05:50:35;;;;;;;10.40;4.60;;;1.10;99.90;;;;;;5054224;28;20115;-77
2021/04/13 05:53:02;;;;;;;6.70;3.50;;;1.10;99.90;;;;;;5073375;28;20023;-76
2021/04/13 05:55:30;;;;;;;6.93;4.43;;;1.10;99.90;;;;;;5072039;28;20102;-77
2021/04/13 05:58:00;;;;;;;6.22;3.53;;;1.20;99.90;;;;;;5055211;28;20075;-77
2021/04/13 06:00:26;;;;;;;5.72;3.65;;;1.30;99.90;;;;;;5051094;28;20032;-77
2021/04/13 06:02:53;;;;;;;5.85;3.53;;;1.40;99.90;;;;;;5061144;28;20024;-78
2021/04/13 06:05:22;;;;;;;10.60;7.00;;;1.40;99.90;;;;;;5055160;28;20017;-77
2021/04/13 06:07:48;;;;;;;9.25;4.38;;;1.50;99.90;;;;;;5082359;22;20157;-57
2021/04/13 06:10:15;;;;;;;6.80;3.58;;;1.60;99.90;;;;;;5079720;28;20029;-55
2021/04/13 06:12:40;;;;;;;8.15;3.75;;;1.60;99.90;;;;;;5073266;28;20016;-56
2021/04/13 06:15:07;;;;;;;7.18;3.17;;;1.60;99.90;;;;;;5086168;28;20599;-58
2021/04/13 06:17:32;;;;;;;7.38;3.40;;;1.60;99.90;;;;;;5080923;28;20032;-57
2021/04/13 06:19:58;;;;;;;9.95;4.47;;;1.70;99.90;;;;;;5085151;28;20020;-58
2021/04/13 06:22:24;;;;;;;9.77;4.05;;;1.80;99.90;;;;;;5062508;28;20024;-57
2021/04/13 06:24:50;;;;;;;9.55;3.47;;;1.90;99.90;;;;;;5077335;28;20435;-59
2021/04/13 06:27:15;;;;;;;6.88;3.58;;;2.10;99.90;;;;;;5077691;28;20028;-59
2021/04/13 06:29:41;;;;;;;9.20;3.58;;;2.30;99.90;;;;;;5087785;28;20111;-59
2021/04/13 06:32:09;;;;;;;4.75;3.13;;;2.30;99.90;;;;;;5077486;28;20039;-58
2021/04/13 06:34:35;;;;;;;5.15;3.08;;;2.40;99.90;;;;;;5060362;28;20020;-58
2021/04/13 06:37:06;;;;;;;7.35;2.90;;;2.40;99.90;;;;;;5080419;28;20028;-58
2021/04/13 06:39:34;;;;;;;10.68;3.50;;;2.50;99.90;;;;;;5069160;28;20054;-58
2021/04/13 06:42:05;;;;;;;5.22;3.00;;;2.50;99.90;;;;;;5085592;28;20089;-59
2021/04/13 06:44:53;;;;;;;5.38;2.45;;;2.60;99.90;;;;;;5086324;28;20016;-58
2021/04/13 06:47:32;;;;;;;6.28;3.08;;;2.70;99.90;;;;;;5077676;28;20153;-58
2021/04/13 06:50:15;;;;;;;6.93;2.78;;;2.70;99.90;;;;;;5075264;28;20024;-57
2021/04/13 06:53:17;;;;;;;4.70;2.90;;;2.80;99.90;;;;;;5086071;28;20021;-56
2021/04/13 06:55:58;;;;;;;7.22;2.78;;;2.90;99.90;;;;;;5076945;28;20123;-57
2021/04/13 06:59:05;;;;;;;6.65;3.08;;;3.10;99.90;;;;;;5086945;28;20028;-58
2021/04/13 07:01:37;;;;;;;8.32;2.97;;;3.20;99.90;;;;;;5092411;22;20131;-60
2021/04/13 07:04:41;;;;;;;7.18;2.88;;;3.40;99.90;;;;;;5072802;28;20509;-59
2021/04/13 07:07:22;;;;;;;3.50;2.10;;;3.60;99.90;;;;;;5048317;28;20083;-60
2021/04/13 07:10:14;;;;;;;3.85;2.10;;;3.80;99.90;;;;;;5072742;28;20106;-60
2021/04/13 07:12:44;;;;;;;11.50;2.05;;;3.90;99.90;;;;;;5068292;28;20115;-61
2021/04/13 07:15:30;;;;;;;6.72;2.10;;;4.10;99.90;;;;;;5068438;28;20059;-60
2021/04/13 07:18:06;;;;;;;10.38;2.13;;;4.20;99.90;;;;;;5068839;28;20494;-58
2021/04/13 07:20:44;;;;;;;13.75;4.20;;;4.30;99.90;;;;;;5068180;28;20024;-60
2021/04/13 07:23:27;;;;;;;6.50;2.63;;;4.40;99.90;;;;;;5071784;28;20553;-59
2021/04/13 07:25:59;;;;;;;4.05;2.28;;;4.60;99.90;;;;;;5072241;28;20058;-62
2021/04/13 07:28:40;;;;;;;3.63;1.80;;;4.60;99.90;;;;;;5072541;28;20465;-60
2021/04/13 07:31:17;;;;;;;3.42;1.63;;;4.80;99.90;;;;;;5072209;28;20039;-61
2021/04/13 07:33:43;;;;;;;;;;;5.10;99.90;;;;;;5056586;28;20394;-61
2021/04/13 07:36:22;;;;;;;4.60;1.80;;;5.40;99.90;;;;;;5065174;28;19912;-60
2021/04/13 07:38:50;;;;;;;6.13;1.98;;;5.60;99.90;;;;;;5069588;28;20567;-59
2021/04/13 07:41:29;;;;;;;6.50;1.80;;;5.80;99.90;;;;;;5071178;28;20020;-54
2021/04/13 07:44:19;;;;;;;5.50;1.75;;;6.00;99.90;;;;;;5072047;28;20017;-56
2021/04/13 07:47:09;;;;;;;6.40;1.40;;;6.20;99.90;;;;;;5071044;28;20043;-61
2021/04/13 07:49:51;;;;;;;5.15;1.70;;;6.50;99.90;;;;;;5055899;28;20064;-60
2021/04/13 07:52:48;;;;;;;6.07;1.92;;;6.70;99.90;;;;;;5049809;28;20029;-59
2021/04/13 07:55:49;;;;;;;5.05;1.95;;;6.80;99.90;;;;;;5072482;28;20078;-61
2021/04/13 07:58:31;;;;;;;7.75;1.88;;;6.60;99.90;;;;;;5054091;28;20094;-59
2021/04/13 08:00:57;;;;;;;7.35;2.15;;;6.50;99.90;;;;;;5070925;28;20024;-61
2021/04/13 08:03:25;;;;;;;4.45;1.95;;;6.50;99.90;;;;;;5072038;28;20100;-60
2021/04/13 08:05:57;;;;;;;6.97;1.60;;;6.60;99.90;;;;;;5071826;28;20029;-60
2021/04/13 08:08:31;;;;;;;5.88;1.50;;;6.60;99.90;;;;;;5071874;28;20021;-61
2021/04/13 08:11:19;;;;;;;5.72;2.13;;;6.70;99.90;;;;;;5071211;28;20052;-61
2021/04/13 08:13:49;;;;;;;6.28;1.95;;;6.80;99.90;;;;;;5053511;28;20039;-60
2021/04/13 08:16:29;;;;;;;4.93;1.70;;;6.90;99.90;;;;;;5071185;28;20433;-60
2021/04/13 08:19:12;;;;;;;9.95;2.53;;;7.00;99.90;;;;;;5071528;28;20032;-61
2021/04/13 08:21:37;;;;;;;6.32;2.53;;;7.20;99.90;;;;;;5069124;28;20033;-60
2021/04/13 08:24:03;;;;;;;11.90;1.80;;;7.30;99.90;;;;;;5069989;28;20016;-60
2021/04/13 08:26:41;;;;;;;5.88;1.40;;;7.30;99.90;;;;;;5071342;28;20174;-60
2021/04/13 08:29:35;;;;;;;9.20;1.80;;;7.40;99.90;;;;;;5071528;28;20031;-57
2021/04/13 08:35:27;;;;;;;9.52;2.97;;;7.30;99.90;;;;;;5068872;28;20162;-59
2021/04/13 08:38:00;;;;;;;10.73;2.65;;;7.30;99.90;;;;;;5061794;28;20552;-60
2021/04/13 08:40:57;;;;;;;7.85;1.92;;;7.30;99.90;;;;;;5070778;28;20020;-60
2021/04/13 08:43:46;;;;;;;9.00;3.28;;;7.30;99.90;;;;;;5047843;28;20128;-58
2021/04/13 08:46:27;;;;;;;15.30;3.15;;;7.40;99.90;;;;;;5058839;28;20021;-56
2021/04/13 08:49:08;;;;;;;10.80;2.22;;;7.30;99.90;;;;;;5064761;28;20506;-59
2021/04/13 08:51:42;;;;;;;8.40;2.30;;;7.50;99.90;;;;;;5052544;28;20024;-56
2021/04/13 08:57:15;;;;;;;7.10;1.60;;;8.00;99.90;;;;;;5058491;28;20086;-58
2021/04/13 08:59:49;;;;;;;4.30;2.05;;;8.30;99.90;;;;;;5064176;28;20575;-58
2021/04/13 09:02:23;;;;;;;6.32;2.35;;;8.60;99.90;;;;;;5053333;28;20059;-61
2021/04/13 09:05:02;;;;;;;10.77;1.50;;;8.60;99.90;;;;;;5067254;28;20025;-59
2021/04/13 09:07:36;;;;;;;6.18;1.77;;;8.20;99.90;;;;;;5070078;28;20027;-60
2021/04/13 09:10:33;;;;;;;3.60;1.40;;;8.10;99.90;;;;;;5069812;28;20201;-59
2021/04/13 09:13:18;;;;;;;;;;;7.80;99.90;;;;;;5070630;28;20024;-60
2021/04/13 09:16:06;;;;;;;6.75;1.88;;;7.50;99.90;;;;;;5068248;28;19935;-56
2021/04/13 09:18:40;;;;;;;7.65;1.95;;;7.60;99.90;;;;;;5056129;28;20037;-56
2021/04/13 09:21:10;;;;;;;6.85;2.03;;;7.90;99.90;;;;;;5069429;28;20540;-58
2021/04/13 09:24:03;;;;;;;9.07;1.55;;;8.30;99.90;;;;;;5067282;28;20023;-60
2021/04/13 09:26:59;;;;;;;9.23;1.90;;;8.80;99.90;;;;;;5069831;28;20075;-61
2021/04/13 09:29:44;;;;;;;11.15;2.58;;;9.20;99.90;;;;;;5069702;28;20300;-60
2021/04/13 09:32:32;;;;;;;6.90;2.30;;;9.60;99.90;;;;;;5058054;28;20028;-59
2021/04/13 09:35:22;;;;;;;11.75;2.50;;;9.70;99.90;;;;;;5069393;28;20029;-60
2021/04/13 09:38:13;;;;;;;10.23;1.80;;;9.50;99.90;;;;;;5046328;28;20035;-60
2021/04/13 09:41:01;;;;;;;8.80;2.20;;;9.10;99.90;;;;;;5068985;28;20571;-56
2021/04/13 09:43:30;;;;;;;7.20;2.83;;;8.80;99.90;;;;;;5068045;28;20418;-61
2021/04/13 09:46:19;;;;;;;11.68;1.58;;;9.10;99.90;;;;;;5073103;28;20025;-57
2021/04/13 09:49:03;;;;;;;11.05;2.15;;;9.40;99.90;;;;;;5068815;28;20017;-60
2021/04/13 09:51:53;;;;;;;10.02;2.42;;;9.70;99.90;;;;;;5058529;28;20028;-57
2021/04/13 09:54:19;;;;;;;10.20;1.60;;;10.00;99.90;;;;;;5069358;28;20417;-57
2021/04/13 09:57:05;;;;;;;6.28;1.83;;;10.20;99.90;;;;;;5069200;28;20128;-57
2021/04/13 10:00:28;;;;;;;8.00;1.98;;;10.10;97.70;;;;;;5069023;28;20506;-57
2021/04/13 10:03:05;;;;;;;5.35;1.35;;;9.80;95.20;;;;;;5067227;28;20145;-59
2021/04/13 10:05:36;;;;;;;8.10;1.52;;;9.50;94.50;;;;;;5068654;28;20436;-57
2021/04/13 10:08:10;;;;;;;8.65;1.85;;;9.40;95.30;;;;;;5068521;28;20025;-55
2021/04/13 10:10:54;;;;;;;9.77;2.08;;;9.20;95.50;;;;;;5068608;28;20056;-56
2021/04/13 10:14:04;;;;;;;6.65;1.40;;;9.20;96.30;;;;;;5068837;28;20044;-56
2021/04/13 10:16:57;;;;;;;10.50;1.67;;;9.40;95.90;;;;;;5041766;28;20102;-58
2021/04/13 10:19:47;;;;;;;5.75;2.45;;;9.90;96.80;;;;;;5062986;28;20104;-57
2021/04/13 10:22:49;;;;;;;6.45;1.83;;;10.10;93.90;;;;;;5068243;28;20040;-57
2021/04/13 10:25:46;;;;;;;7.20;3.10;;;10.30;93.70;;;;;;5061979;28;20056;-58
2021/04/13 10:28:30;;;;;;;8.57;2.63;;;10.40;94.40;;;;;;5067978;28;20032;-57
2021/04/13 10:31:11;;;;;;;6.43;1.50;;;10.20;92.60;;;;;;5068320;28;20645;-56
2021/04/13 10:34:01;;;;;;;4.22;1.13;;;10.50;94.80;;;;;;5068526;28;20028;-57
2021/04/13 10:36:47;;;;;;;5.60;1.40;;;10.80;91.10;;;;;;5072259;28;20764;-57
2021/04/13 10:39:18;;;;;;;5.15;1.52;;;10.50;90.10;;;;;;5068613;28;20043;-58
2021/04/13 10:41:59;;;;;;;5.72;1.30;;;10.70;90.50;;;;;;5049872;28;20040;-57
2021/04/13 10:44:58;;;;;;;7.20;2.17;;;10.80;86.20;;;;;;5068642;28;20491;-58
2021/04/13 10:47:41;;;;;;;3.97;1.55;;;10.70;86.00;;;;;;5056646;28;20025;-56
2021/04/13 10:50:44;;;;;;;8.85;1.55;;;10.70;81.00;;;;;;5049705;28;20024;-56
2021/04/13 10:53:38;;;;;;;5.13;1.80;;;10.70;81.40;;;;;;5068297;28;20036;-57
2021/04/13 10:56:25;;;;;;;5.88;1.52;;;10.80;84.10;;;;;;5067469;28;20020;-58
2021/04/13 10:59:25;;;;;;;6.10;1.17;;;10.80;83.10;;;;;;5065991;28;20111;-59
2021/04/13 11:02:13;;;;;;;6.00;1.48;;;11.10;87.10;;;;;;5071914;28;20025;-55
2021/04/13 11:05:30;;;;;;;3.13;1.48;;;11.10;78.30;;;;;;5067445;28;20036;-57
2021/04/13 11:08:33;;;;;;;7.22;1.50;;;11.20;78.40;;;;;;5035820;28;20044;-57
2021/04/13 11:11:07;;;;;;;6.10;1.30;;;11.40;84.70;;;;;;5067643;28;20098;-57
2021/04/13 11:13:51;;;;;;;4.40;1.35;;;11.10;79.50;;;;;;5049477;28;20486;-58
2021/04/13 11:16:43;;;;;;;5.95;1.50;;;10.70;80.20;;;;;;5063189;28;20401;-59
2021/04/13 11:19:26;;;;;;;6.03;1.02;;;10.50;79.60;;;;;;5065819;28;20029;-58
2021/04/13 11:22:10;;;;;;;5.93;1.42;;;10.20;80.30;;;;;;5049378;28;20020;-58
2021/04/13 11:24:42;;;;;;;10.00;1.85;;;10.30;84.60;;;;;;5068000;28;20575;-58
2021/04/13 11:27:29;;;;;;;2.15;1.02;;;10.30;88.00;;;;;;5067789;28;20025;-57
2021/04/13 11:30:22;;;;;;;4.07;1.23;;;10.10;84.00;;;;;;5068159;28;20033;-59
2021/04/13 11:33:02;;;;;;;5.03;1.75;;;10.10;86.70;;;;;;5067826;28;20044;-58
2021/04/13 11:35:35;;;;;;;3.97;1.38;;;10.30;83.50;;;;;;5067021;28;20432;-59
2021/04/13 11:38:26;;;;;;;5.30;1.60;;;10.40;84.50;;;;;;5063326;28;20025;-59
2021/04/13 11:41:07;;;;;;;7.05;1.58;;;10.70;84.20;;;;;;5061385;28;20060;-58
2021/04/13 11:43:41;;;;;;;8.93;1.40;;;10.60;80.60;;;;;;5067606;28;20059;-59
2021/04/13 11:46:14;;;;;;;7.15;1.77;;;10.50;81.60;;;;;;5068421;28;20024;-57
2021/04/13 11:48:44;;;;;;;5.65;1.20;;;10.30;83.40;;;;;;5050616;28;20021;-57
2021/04/13 11:51:35;;;;;;;9.45;1.73;;;10.20;84.50;;;;;;5072338;28;20036;-57
2021/04/13 11:54:39;;;;;;;4.47;1.50;;;9.60;90.90;;;;;;5068058;28;20040;-59
2021/04/13 11:57:26;;;;;;;7.72;2.20;;;9.10;94.60;;;;;;5067675;28;20035;-58
2021/04/13 12:00:21;;;;;;;8.52;1.80;;;8.60;97.60;;;;;;5049619;28;20071;-58
2021/04/13 12:03:06;;;;;;;5.68;2.03;;;8.50;99.90;;;;;;5014780;28;20043;-53
2021/04/13 12:05:32;;;;;;;8.60;2.22;;;8.70;99.90;;;;;;5064688;28;20024;-57
2021/04/13 12:07:58;;;;;;;5.03;2.20;;;8.90;99.90;;;;;;5067793;28;20375;-56
2021/04/13 12:10:27;;;;;;;6.32;1.77;;;9.00;98.80;;;;;;5070778;28;20479;-55
2021/04/13 12:12:53;;;;;;;5.88;1.13;;;9.20;98.10;;;;;;5051482;28;20399;-57
2021/04/13 12:15:19;;;;;;;3.17;0.90;;;9.40;97.90;;;;;;5074625;28;20043;-59
2021/04/13 12:17:47;;;;;;;5.75;1.55;;;9.60;93.80;;;;;;5072354;28;20017;-57
2021/04/13 12:20:24;;;;;;;3.15;1.17;;;9.50;92.90;;;;;;5051951;28;20134;-59
2021/04/13 12:23:02;;;;;;;1.88;0.82;;;9.60;94.40;;;;;;5048908;28;20116;-58
2021/04/13 12:25:53;;;;;;;4.00;1.23;;;9.70;93.10;;;;;;5051436;28;20204;-59
2021/04/13 12:28:34;;;;;;;7.85;1.95;;;9.80;93.50;;;;;;5051175;28;20427;-58
2021/04/13 12:31:05;;;;;;;6.05;1.13;;;9.70;92.20;;;;;;5050748;28;20036;-55
2021/04/13 12:33:31;;;;;;;3.97;1.27;;;9.60;93.80;;;;;;5069501;28;20513;-57
2021/04/13 12:36:08;;;;;;;5.38;0.90;;;9.50;95.10;;;;;;5069914;28;20064;-57
2021/04/13 12:38:42;;;;;;;4.85;1.42;;;9.50;94.90;;;;;;5068466;28;20033;-58
2021/04/13 12:41:15;;;;;;;6.15;1.10;;;9.40;96.10;;;;;;5063161;28;20037;-56
2021/04/13 12:44:17;;;;;;;6.45;1.42;;;9.60;95.40;;;;;;5062464;28;20535;-59
2021/04/13 12:46:45;;;;;;;5.57;1.55;;;9.90;93.10;;;;;;5053652;28;20016;-57
2021/04/13 12:49:11;;;;;;;3.70;1.35;;;9.80;92.80;;;;;;5052851;28;20031;-57
2021/04/13 12:52:01;;;;;;;7.88;1.40;;;9.90;90.60;;;;;;5038233;28;20519;-58
2021/04/13 12:54:38;;;;;;;5.30;1.48;;;10.00;89.10;;;;;;5063566;28;20021;-57
2021/04/13 12:57:27;;;;;;;5.25;1.33;;;10.10;86.60;;;;;;5069194;28;20033;-56
2021/04/13 13:00:07;;;;;;;5.90;1.17;;;10.20;84.60;;;;;;5062622;28;20020;-57
2021/04/13 13:02:37;;;;;;;6.05;1.45;;;10.30;85.90;;;;;;5064474;28;20586;-59
2021/04/13 13:05:24;;;;;;;3.97;1.40;;;10.30;89.90;;;;;;5070866;28;20024;-57
2021/04/13 13:07:57;;;;;;;4.65;1.67;;;10.10;91.90;;;;;;5070484;28;20268;-59
2021/04/13 13:10:31;;;;;;;6.28;1.13;;;9.80;93.00;;;;;;5070335;28;20013;-56
2021/04/13 13:13:06;;;;;;;6.20;0.95;;;9.50;90.70;;;;;;5057056;28;20147;-58
2021/04/13 13:15:37;;;;;;;3.92;0.85;;;9.40;92.30;;;;;;5069357;28;20062;-57
2021/04/13 13:18:38;;;;;;;4.80;1.10;;;9.60;91.10;;;;;;5070993;28;20039;-56
2021/04/13 13:21:06;;;;;;;9.05;1.20;;;9.70;87.80;;;;;;5063766;28;20040;-57
2021/04/13 13:23:36;;;;;;;5.53;0.68;;;9.50;84.50;;;;;;5070218;28;20046;-57
2021/04/13 13:26:19;;;;;;;5.45;1.15;;;9.40;87.30;;;;;;5069911;28;20012;-59
2021/04/13 13:28:44;;;;;;;7.43;0.88;;;9.60;89.00;;;;;;5049862;28;20023;-57
2021/04/13 13:31:25;;;;;;;3.13;0.90;;;9.60;87.80;;;;;;5055430;28;20442;-55
2021/04/13 13:33:56;;;;;;;5.53;1.95;;;9.30;86.20;;;;;;5064948;28;20127;-59
2021/04/13 13:36:22;;;;;;;7.10;1.13;;;9.10;90.90;;;;;;5052537;28;20383;-59
2021/04/13 13:38:49;;;;;;;5.95;1.58;;;9.30;89.80;;;;;;5060642;28;20036;-56
2021/04/13 13:41:19;;;;;;;8.23;1.90;;;9.20;87.70;;;;;;5052528;28;20502;-58
2021/04/13 13:43:45;;;;;;;2.70;1.08;;;9.10;88.20;;;;;;5054450;28;20025;-58
2021/04/13 13:46:27;;;;;;;3.85;1.27;;;9.10;89.60;;;;;;5050325;28;20070;-59
2021/04/13 13:48:56;;;;;;;5.93;1.67;;;9.10;90.40;;;;;;5053893;28;20509;-58
2021/04/13 13:51:33;;;;;;;2.78;0.98;;;8.90;90.30;;;;;;5048465;28;20590;-57
2021/04/13 13:54:23;;;;;;;6.63;1.35;;;8.70;91.00;;;;;;5052690;28;20043;-58
2021/04/13 13:56:48;;;;;;;3.10;1.27;;;8.40;91.30;;;;;;5042140;28;20052;-59
2021/04/13 13:59:19;;;;;;;5.43;1.00;;;8.40;92.70;;;;;;5059838;28;20582;-58